createdAt,value
2023-02-09T00:02:05.614Z,4.9
2023-02-09T00:08:25.592Z,4.9
2023-02-09T00:14:48.532Z,3.8
2023-02-09T00:21:08.699Z,3.8
2023-02-09T00:27:31.700Z,2.4
2023-02-09T00:33:51.768Z,2.4
2023-02-09T00:40:14.837Z,3.7
2023-02-09T00:46:34.534Z,3.7
2023-02-09T00:52:57.605Z,5.8
2023-02-09T00:59:17.645Z,5.8
2023-02-09T01:05:40.655Z,4.8
2023-02-09T01:12:00.644Z,4.8
2023-02-09T01:18:23.695Z,6
2023-02-09T01:24:43.699Z,6
2023-02-09T01:31:06.619Z,5.1
2023-02-09T01:37:26.540Z,5.1
2023-02-09T01:43:49.481Z,3.5
2023-02-09T01:50:09.579Z,3.5
2023-02-09T01:56:32.636Z,5.9
2023-02-09T02:02:52.640Z,5.9
2023-02-09T02:09:15.646Z,4.1
2023-02-09T02:15:35.773Z,4.1
2023-02-09T02:21:58.625Z,3.2
2023-02-09T02:28:18.556Z,3.2
2023-02-09T02:34:41.532Z,3.3
2023-02-09T02:41:01.586Z,3.3
2023-02-09T02:47:24.507Z,4.9
2023-02-09T02:53:44.553Z,4.9
2023-02-09T03:00:07.487Z,4.4
2023-02-09T03:06:27.547Z,4.4
2023-02-09T03:12:50.578Z,4
2023-02-09T03:19:10.563Z,4
2023-02-09T03:25:33.518Z,4.8
2023-02-09T03:31:53.760Z,4.8
2023-02-09T03:38:16.650Z,3.8
2023-02-09T03:44:36.564Z,3.8
2023-02-09T03:50:59.544Z,2.9
2023-02-09T03:57:19.579Z,2.9
2023-02-09T04:03:42.542Z,4.6
2023-02-09T04:26:49.452Z,3.3
2023-02-09T04:33:09.489Z,3.3
2023-02-09T04:39:32.520Z,3.8
2023-02-09T04:45:52.561Z,3.8
2023-02-09T04:52:15.578Z,3.7
2023-02-09T04:58:35.703Z,3.7
2023-02-09T05:04:58.586Z,4.1
2023-02-09T05:11:18.542Z,4.1
2023-02-09T05:17:41.680Z,6.8
2023-02-09T05:24:01.608Z,6.8
2023-02-09T05:30:24.506Z,6.3
2023-02-09T05:36:44.539Z,6.3
2023-02-09T05:43:07.516Z,4.9
2023-02-09T05:49:27.610Z,4.9
2023-02-09T05:55:50.518Z,5
2023-02-09T06:02:10.520Z,5
2023-02-09T06:08:33.529Z,5
2023-02-09T06:14:53.482Z,5
2023-02-09T06:21:16.548Z,6.1
2023-02-09T06:27:36.704Z,6.1
2023-02-09T06:33:59.543Z,3.8
2023-02-09T06:40:19.661Z,3.8
2023-02-09T06:46:42.615Z,6
2023-02-09T06:53:02.640Z,6
2023-02-09T06:59:25.589Z,5.8
2023-02-09T07:05:45.532Z,5.8
2023-02-09T07:12:08.528Z,7.3
2023-02-09T07:18:28.573Z,7.3
2023-02-09T07:24:51.588Z,5.3
2023-02-09T07:31:11.611Z,5.3
2023-02-09T07:37:34.570Z,8.3
2023-02-09T07:43:54.576Z,8.3
2023-02-09T07:50:19.245Z,8.5
2023-02-09T07:56:38.163Z,8.5
2023-02-09T08:03:01.553Z,9.7
2023-02-09T08:09:21.571Z,9.7
2023-02-09T08:15:44.953Z,8
2023-02-09T08:22:04.539Z,8
2023-02-09T08:28:41.934Z,4.9
2023-02-09T08:34:47.584Z,4.9
2023-02-09T08:41:10.544Z,6
2023-02-09T08:47:30.616Z,6
2023-02-09T08:53:53.580Z,5.2
2023-02-09T09:00:13.542Z,5.2
2023-02-09T09:06:36.642Z,5.7
2023-02-09T09:12:56.854Z,5.7
2023-02-09T09:19:19.873Z,6.1
2023-02-09T09:34:51.486Z,6.5
2023-02-09T09:41:11.492Z,6.5
2023-02-09T09:47:34.511Z,13.5
2023-02-09T09:53:54.546Z,13.5
2023-02-09T10:00:17.540Z,13.5
2023-02-09T10:06:37.756Z,13.5
2023-02-09T10:13:00.539Z,5.4
2023-02-09T10:19:20.676Z,5.4
2023-02-09T10:25:43.720Z,10.5
2023-02-09T10:32:03.746Z,10.5
2023-02-09T10:38:26.642Z,7.6
2023-02-09T10:44:46.553Z,7.6
2023-02-09T10:51:09.654Z,6.1
2023-02-09T10:57:29.628Z,6.1
2023-02-09T11:03:52.657Z,7.1
2023-02-09T11:10:12.758Z,7.1
2023-02-09T11:16:35.571Z,7.3
2023-02-09T11:22:55.633Z,7.3
2023-02-09T11:29:18.600Z,8.5
2023-02-09T11:35:38.615Z,8.5
2023-02-09T11:42:01.603Z,5.8
2023-02-09T11:48:21.593Z,5.8
2023-02-09T11:54:44.533Z,7.4
2023-02-09T12:01:14.913Z,7.4
2023-02-09T12:07:27.584Z,6.1
2023-02-09T12:13:50.193Z,6.1
2023-02-09T12:20:11.563Z,7.6
2023-02-09T12:26:31.582Z,7.6
2023-02-09T12:32:54.534Z,5.4
2023-02-09T12:39:14.502Z,5.4
2023-02-09T12:45:37.668Z,3.3
2023-02-09T12:51:57.545Z,3.3
2023-02-09T12:58:20.538Z,2.9
2023-02-09T13:04:40.569Z,2.9
2023-02-09T13:11:03.547Z,5.4
2023-02-09T13:17:23.583Z,5.4
2023-02-09T13:23:46.560Z,4.6
2023-02-09T13:30:06.509Z,4.6
2023-02-09T13:36:29.790Z,4
2023-02-09T13:42:49.558Z,4
2023-02-09T13:49:12.632Z,3.7
2023-02-09T13:55:32.524Z,3.7
2023-02-09T14:01:55.614Z,5.6
2023-02-09T14:08:15.601Z,5.6
2023-02-09T14:14:38.516Z,4.6
2023-02-09T14:20:58.680Z,4.6
2023-02-09T14:27:21.558Z,5.6
2023-02-09T14:50:10.716Z,2.7
2023-02-09T14:56:30.576Z,2.7
2023-02-09T15:02:53.546Z,7.4
2023-02-09T15:09:13.650Z,7.4
2023-02-09T15:15:36.556Z,5.4
2023-02-09T15:22:06.421Z,5.4
2023-02-09T15:28:19.690Z,5.2
2023-02-09T15:34:39.533Z,5.2
2023-02-09T15:41:02.567Z,5.4
2023-02-09T15:47:22.522Z,5.4
2023-02-09T15:53:45.625Z,5.2
2023-02-09T16:00:05.580Z,5.2
2023-02-09T16:06:28.595Z,3.3
2023-02-09T16:12:48.581Z,3.3
2023-02-09T16:19:11.787Z,4.2
2023-02-09T16:25:31.633Z,4.2
2023-02-09T16:31:54.728Z,3.8
2023-02-09T16:38:14.710Z,3.8
2023-02-09T16:44:37.564Z,1.8
2023-02-09T16:50:57.499Z,1.8
2023-02-09T16:57:20.564Z,4
2023-02-09T17:03:40.554Z,4
2023-02-09T17:10:03.806Z,3.1
2023-02-09T17:16:23.616Z,3.1
2023-02-09T17:22:46.542Z,4.9
2023-02-09T17:29:06.689Z,4.9
2023-02-09T17:35:53.285Z,4
2023-02-09T17:41:49.556Z,4
2023-02-09T17:48:12.630Z,4.6
2023-02-09T17:54:32.693Z,4.6
2023-02-09T18:00:55.850Z,3.2
2023-02-09T18:07:15.621Z,3.2
2023-02-09T18:13:38.658Z,4.1
2023-02-09T18:19:58.644Z,4.1
2023-02-09T18:26:21.600Z,3.7
2023-02-09T18:32:41.549Z,3.7
2023-02-09T18:39:04.518Z,8.9
2023-02-09T18:45:24.663Z,8.9
2023-02-09T18:51:47.517Z,5.4
2023-02-09T18:58:07.615Z,5.4
2023-02-09T19:04:30.561Z,5
2023-02-09T19:10:50.507Z,5
2023-02-09T19:17:13.894Z,5.4
2023-02-09T19:23:33.601Z,5.4
2023-02-09T19:29:56.496Z,5.6
2023-02-09T19:36:16.715Z,5.6
2023-02-09T19:42:39.505Z,6.4
2023-02-09T19:59:23.187Z,7.7
2023-02-09T20:05:46.393Z,20
2023-02-09T20:12:05.511Z,20
2023-02-09T20:18:28.609Z,20
2023-02-09T20:24:48.618Z,20
2023-02-09T20:31:11.685Z,6.4
2023-02-09T20:37:31.581Z,6.4
2023-02-09T20:43:54.498Z,9.8
2023-02-09T20:50:14.575Z,9.8
2023-02-09T20:56:37.584Z,7.3
2023-02-09T21:02:57.542Z,7.3
2023-02-09T21:09:20.595Z,4.5
2023-02-09T21:15:40.527Z,4.5
2023-02-09T21:22:03.785Z,5.4
2023-02-09T21:28:23.678Z,5.4
2023-02-09T21:34:46.554Z,7.2
2023-02-09T21:41:06.547Z,7.2
2023-02-09T21:47:29.523Z,12.2
2023-02-09T21:53:49.997Z,12.2
2023-02-09T22:00:12.628Z,5.5
2023-02-09T22:06:32.749Z,5.5
2023-02-09T22:12:55.549Z,7.7
2023-02-09T22:19:15.524Z,7.7
2023-02-09T22:25:38.536Z,9.2
2023-02-09T22:31:58.552Z,9.2
2023-02-09T22:38:21.584Z,9.7
2023-02-09T22:44:41.793Z,9.7
2023-02-09T22:51:04.757Z,6.4
2023-02-09T22:57:24.549Z,6.4
2023-02-09T23:20:33.540Z,18
2023-02-09T23:26:53.593Z,18
2023-02-09T23:33:16.673Z,18
2023-02-09T23:39:36.689Z,18
2023-02-09T23:45:59.752Z,7
2023-02-09T23:52:19.616Z,7
2023-02-09T23:58:42.811Z,6.4
